createdAt,value
2018-04-26T00:01:17.797Z,8.50
2018-04-26T00:03:48.381Z,8.50
2018-04-26T00:06:21.087Z,8.60
2018-04-26T00:08:49.539Z,8.50
2018-04-26T00:11:21.499Z,8.60
2018-04-26T00:13:50.015Z,8.50
2018-04-26T00:16:23.705Z,8.50
2018-04-26T00:21:25.865Z,8.50
2018-04-26T00:23:54.571Z,8.50
2018-04-26T00:26:27.856Z,8.50
2018-04-26T00:28:56.301Z,8.50
2018-04-26T00:31:38.077Z,8.40
2018-04-26T00:34:06.955Z,8.40
2018-04-26T00:36:36.236Z,8.50
2018-04-26T00:41:34.979Z,9.10
2018-04-26T00:44:04.620Z,8.60
2018-04-26T00:49:05.927Z,8.60
2018-04-26T00:51:53.314Z,8.60
2018-04-26T00:54:21.808Z,8.60
2018-04-26T00:56:50.662Z,8.60
2018-04-26T00:59:19.438Z,8.50
2018-04-26T01:01:47.919Z,8.50
2018-04-26T01:04:17.551Z,7.70
2018-04-26T01:06:46.716Z,8.40
2018-04-26T01:09:15.194Z,8.40
2018-04-26T01:11:47.944Z,8.40
2018-04-26T01:14:17.428Z,8.40
2018-04-26T01:19:17.859Z,8.40
2018-04-26T01:24:29.378Z,8.30
2018-04-26T01:26:57.854Z,9.70
2018-04-26T01:31:57.496Z,8.20
2018-04-26T01:34:25.943Z,8.10
2018-04-26T01:37:13.475Z,8.20
2018-04-26T01:39:41.952Z,8.10
2018-04-26T01:42:10.801Z,8.10
2018-04-26T01:44:39.528Z,8.10
2018-04-26T01:47:07.982Z,7.90
2018-04-26T01:52:07.766Z,8.10
2018-04-26T01:54:37.403Z,8.10
2018-04-26T01:57:10.453Z,8.20
2018-04-26T01:59:39.586Z,8.70
2018-04-26T02:02:21.623Z,8.20
2018-04-26T02:04:51.487Z,8.30
2018-04-26T02:07:21.055Z,8.20
2018-04-26T02:09:49.530Z,8.40
2018-04-26T02:12:18.057Z,8.40
2018-04-26T02:14:48.021Z,8.40
2018-04-26T02:19:47.863Z,8.50
2018-04-26T02:22:21.329Z,8.50
2018-04-26T02:24:50.068Z,8.50
2018-04-26T02:27:25.527Z,8.50
2018-04-26T02:32:27.098Z,8.50
2018-04-26T02:34:56.337Z,8.60
2018-04-26T02:37:28.879Z,8.60
2018-04-26T02:39:57.711Z,8.60
2018-04-26T02:42:29.868Z,10.20
2018-04-26T02:44:58.623Z,8.60
2018-04-26T02:47:31.507Z,9.10
2018-04-26T02:49:59.958Z,8.60
2018-04-26T02:52:34.071Z,8.60
2018-04-26T02:55:02.502Z,8.60
2018-04-26T02:57:38.211Z,8.70
2018-04-26T03:00:08.125Z,8.60
2018-04-26T03:02:37.711Z,8.70
2018-04-26T03:05:06.307Z,8.50
2018-04-26T03:07:39.924Z,8.70
2018-04-26T03:10:09.177Z,8.70
2018-04-26T03:12:44.397Z,8.70
2018-04-26T03:15:12.901Z,8.70
2018-04-26T03:17:44.758Z,8.60
2018-04-26T03:20:13.468Z,8.60
2018-04-26T03:22:46.600Z,8.50
2018-04-26T03:25:15.093Z,8.50
2018-04-26T03:27:49.027Z,8.50
2018-04-26T03:30:17.903Z,8.50
2018-04-26T03:32:59.683Z,8.40
2018-04-26T03:37:58.281Z,8.40
2018-04-26T03:40:28.226Z,8.30
2018-04-26T03:42:57.815Z,8.20
2018-04-26T03:45:26.946Z,8.20
2018-04-26T03:47:59.406Z,8.10
2018-04-26T03:50:28.603Z,8.10
2018-04-26T03:53:01.745Z,8.00
2018-04-26T03:55:30.987Z,8.00
2018-04-26T03:58:04.168Z,8.00
2018-04-26T04:02:46.247Z,8.10
2018-04-26T04:05:23.657Z,8.10
2018-04-26T04:07:53.183Z,8.00
2018-04-26T04:10:22.806Z,8.10
2018-04-26T04:12:51.285Z,8.20
2018-04-26T04:15:22.335Z,8.20
2018-04-26T04:20:20.314Z,8.20
2018-04-26T04:22:49.029Z,8.20
2018-04-26T04:27:47.759Z,8.20
2018-04-26T04:30:19.962Z,8.30
2018-04-26T04:32:48.434Z,8.30
2018-04-26T04:35:22.094Z,8.20
2018-04-26T04:37:50.856Z,8.20
2018-04-26T04:40:23.467Z,8.20
2018-04-26T04:42:53.051Z,8.20
2018-04-26T04:45:26.112Z,8.30
2018-04-26T04:47:54.612Z,8.30
2018-04-26T04:50:36.226Z,8.30
2018-04-26T04:53:04.817Z,8.30
2018-04-26T04:55:33.686Z,8.20
2018-04-26T04:58:03.303Z,8.30
2018-04-26T05:03:03.283Z,8.30
2018-04-26T05:05:33.779Z,8.40
2018-04-26T05:08:02.991Z,8.50
2018-04-26T05:13:07.077Z,8.40
2018-04-26T05:15:39.390Z,8.40
2018-04-26T05:18:08.162Z,8.40
2018-04-26T05:23:09.207Z,8.50
2018-04-26T05:25:42.448Z,8.60
2018-04-26T05:28:12.208Z,8.60
2018-04-26T05:33:14.680Z,8.80
2018-04-26T05:38:18.135Z,9.00
2018-04-26T05:40:51.334Z,9.00
2018-04-26T05:45:52.913Z,9.00
2018-04-26T05:53:23.071Z,9.00
2018-04-26T05:58:31.316Z,9.00
2018-04-26T06:00:59.951Z,9.00
2018-04-26T06:05:00.946Z,9.00
2018-04-26T06:15:11.396Z,9.20
2018-04-26T06:17:41.855Z,9.10
2018-04-26T06:22:39.791Z,9.20
2018-04-26T06:25:12.702Z,9.20
2018-04-26T06:27:41.199Z,9.20
2018-04-26T06:30:14.265Z,9.10
2018-04-26T06:32:43.551Z,9.20
2018-04-26T06:35:16.737Z,9.30
2018-04-26T06:37:46.364Z,9.20
2018-04-26T06:40:27.554Z,10.40
2018-04-26T06:45:26.229Z,9.10
2018-04-26T06:47:55.536Z,9.30
2018-04-26T06:50:24.715Z,9.40
2018-04-26T06:52:54.243Z,9.30
2018-04-26T06:55:26.472Z,9.20
2018-04-26T06:57:54.931Z,9.00
2018-04-26T07:00:28.232Z,9.00
2018-04-26T07:02:58.846Z,8.90
2018-04-26T07:05:29.586Z,9.10
2018-04-26T07:07:58.054Z,9.20
2018-04-26T07:10:31.991Z,9.10
2018-04-26T07:13:01.139Z,9.30
2018-04-26T07:15:41.971Z,9.50
2018-04-26T07:18:10.719Z,9.50
2018-04-26T07:20:39.187Z,9.20
2018-04-26T07:23:08.036Z,9.10
2018-04-26T07:25:40.516Z,9.20
2018-04-26T07:28:08.971Z,9.20
2018-04-26T07:30:41.371Z,9.20
2018-04-26T07:33:10.880Z,9.30
2018-04-26T07:35:57.180Z,9.40
2018-04-26T07:38:26.873Z,10.30
2018-04-26T07:40:55.754Z,11.20
2018-04-26T07:43:24.247Z,10.60
2018-04-26T07:45:56.657Z,10.00
2018-04-26T07:53:27.050Z,10.00
2018-04-26T07:55:56.313Z,10.10
2018-04-26T07:58:24.802Z,10.20
2018-04-26T08:00:55.004Z,10.60
2018-04-26T08:03:24.983Z,10.70
2018-04-26T08:05:58.595Z,10.50
2018-04-26T08:08:28.462Z,10.80
2018-04-26T08:11:00.832Z,11.80
2018-04-26T08:13:29.345Z,11.40
2018-04-26T08:16:12.563Z,11.00
2018-04-26T08:18:41.825Z,10.70
2018-04-26T08:34:14.853Z,11.20
2018-04-26T08:36:44.080Z,10.70
2018-04-26T08:39:14.911Z,10.30
2018-04-26T08:41:43.395Z,10.20
2018-04-26T08:46:45.578Z,9.90
2018-04-26T08:49:27.784Z,10.00
2018-04-26T08:51:56.613Z,9.10
2018-04-26T08:54:25.139Z,10.30
2018-04-26T08:59:24.192Z,10.70
2018-04-26T09:01:53.035Z,10.90
2018-04-26T09:04:25.124Z,10.80
2018-04-26T09:09:35.903Z,11.10
2018-04-26T09:12:05.457Z,11.90
2018-04-26T09:14:35.154Z,12.30
2018-04-26T09:17:03.659Z,11.60
2018-04-26T09:19:33.716Z,11.70
2018-04-26T09:22:02.982Z,12.20
2018-04-26T09:24:34.769Z,12.60
2018-04-26T09:27:04.709Z,12.70
2018-04-26T09:34:45.730Z,13.10
2018-04-26T09:39:44.024Z,12.20
2018-04-26T09:42:13.271Z,11.80
2018-04-26T09:44:42.395Z,11.60
2018-04-26T09:47:10.877Z,11.80
2018-04-26T09:49:43.399Z,11.60
2018-04-26T09:52:13.367Z,11.40
2018-04-26T09:54:47.370Z,11.20
2018-04-26T09:57:15.867Z,11.20
2018-04-26T09:59:49.233Z,11.70
2018-04-26T10:02:22.323Z,12.10
2018-04-26T10:04:55.534Z,12.50
2018-04-26T10:07:24.342Z,12.70
2018-04-26T10:09:54.632Z,12.70
2018-04-26T10:12:24.270Z,12.40
2018-04-26T10:15:05.841Z,12.40
2018-04-26T10:17:34.414Z,12.20
2018-04-26T10:20:04.451Z,12.00
2018-04-26T10:22:33.570Z,11.90
2018-04-26T10:25:02.106Z,12.30
2018-04-26T10:27:30.574Z,12.60
2018-04-26T10:30:12.548Z,12.40
2018-04-26T10:32:41.820Z,12.50
2018-04-26T10:35:10.927Z,12.40
2018-04-26T10:40:10.950Z,12.20
2018-04-26T10:42:40.748Z,12.20
2018-04-26T10:45:12.779Z,11.90
2018-04-26T10:47:41.399Z,12.10
2018-04-26T10:50:14.703Z,12.50
2018-04-26T10:52:43.208Z,12.50
2018-04-26T10:55:25.621Z,12.50
2018-04-26T11:00:24.191Z,12.40
2018-04-26T11:02:53.247Z,12.30
2018-04-26T11:05:22.221Z,12.40
2018-04-26T11:07:51.516Z,12.60
2018-04-26T11:10:26.097Z,12.60
2018-04-26T11:12:55.344Z,12.80
2018-04-26T11:15:27.353Z,12.90
2018-04-26T11:17:55.856Z,13.10
2018-04-26T11:20:31.708Z,14.70
2018-04-26T11:25:33.312Z,12.90
2018-04-26T11:28:02.243Z,13.00
2018-04-26T11:30:35.741Z,13.40
2018-04-26T11:35:38.293Z,13.90
2018-04-26T11:38:08.263Z,14.00
2018-04-26T11:40:40.691Z,15.00
2018-04-26T11:43:10.715Z,14.00
2018-04-26T11:48:11.117Z,14.20
2018-04-26T11:50:45.342Z,14.20
2018-04-26T11:53:14.596Z,13.90
2018-04-26T11:55:56.147Z,13.70
2018-04-26T11:58:25.690Z,13.70
2018-04-26T12:00:54.616Z,13.80
2018-04-26T12:03:23.212Z,13.70
2018-04-26T12:05:53.046Z,13.80
2018-04-26T12:08:21.934Z,14.10
2018-04-26T12:10:56.021Z,14.20
2018-04-26T12:13:24.510Z,14.40
2018-04-26T12:15:58.714Z,14.30
2018-04-26T12:18:28.041Z,14.30
2018-04-26T12:26:04.949Z,14.40
2018-04-26T12:28:33.863Z,14.50
2018-04-26T12:31:07.251Z,14.30
2018-04-26T12:33:35.793Z,14.50
2018-04-26T12:36:08.278Z,14.70
2018-04-26T12:38:38.729Z,14.70
2018-04-26T12:41:12.275Z,14.60
2018-04-26T12:43:40.802Z,14.10
2018-04-26T12:46:14.046Z,14.50
2018-04-26T12:48:43.800Z,14.70
2018-04-26T12:51:16.633Z,14.10
2018-04-26T12:53:45.269Z,13.80
2018-04-26T12:56:18.422Z,13.90
2018-04-26T12:58:46.927Z,13.00
2018-04-26T13:01:29.153Z,13.90
2018-04-26T13:03:58.519Z,13.80
2018-04-26T13:06:27.099Z,14.00
2018-04-26T13:08:55.970Z,14.10
2018-04-26T13:11:24.555Z,14.30
2018-04-26T13:13:53.883Z,14.30
2018-04-26T13:16:36.191Z,14.30
2018-04-26T13:24:04.182Z,14.80
2018-04-26T13:26:33.414Z,14.60
2018-04-26T13:29:01.927Z,14.20
2018-04-26T13:31:32.895Z,14.70
2018-04-26T13:34:01.821Z,14.60
2018-04-26T13:36:36.865Z,14.10
2018-04-26T13:39:07.372Z,14.70
2018-04-26T13:44:07.144Z,14.50
2018-04-26T13:46:39.959Z,14.50
2018-04-26T13:54:27.195Z,15.20
2018-04-26T13:56:56.747Z,14.90
2018-04-26T14:01:56.201Z,14.60
2018-04-26T14:04:26.254Z,14.40
2018-04-26T14:06:54.834Z,14.50
2018-04-26T14:09:25.177Z,14.50
2018-04-26T14:11:54.191Z,14.40
2018-04-26T14:14:24.362Z,14.10
2018-04-26T14:16:55.272Z,13.90
2018-04-26T14:19:23.774Z,14.10
2018-04-26T14:21:57.239Z,14.20
2018-04-26T14:24:26.029Z,14.70
2018-04-26T14:26:59.671Z,14.90
2018-04-26T14:29:28.203Z,15.10
2018-04-26T14:34:31.262Z,15.00
2018-04-26T14:37:01.908Z,15.20
2018-04-26T14:39:31.287Z,14.70
2018-04-26T14:42:05.407Z,14.50
2018-04-26T14:44:33.907Z,14.50
2018-04-26T14:49:47.036Z,14.60
2018-04-26T14:52:15.854Z,14.50
2018-04-26T14:57:14.672Z,14.70
2018-04-26T14:59:43.195Z,14.70
2018-04-26T15:02:16.123Z,14.40
2018-04-26T15:04:45.376Z,14.60
2018-04-26T15:07:27.831Z,14.70
2018-04-26T15:09:57.384Z,14.40
2018-04-26T15:12:25.920Z,14.50
2018-04-26T15:22:25.131Z,14.40
2018-04-26T15:24:54.064Z,14.50
2018-04-26T15:27:35.843Z,14.40
2018-04-26T15:30:05.184Z,14.60
2018-04-26T15:32:34.818Z,14.70
2018-04-26T15:35:03.325Z,14.60
2018-04-26T15:40:02.094Z,14.70
2018-04-26T15:42:35.582Z,14.50
2018-04-26T15:45:05.323Z,14.30
2018-04-26T15:47:37.150Z,14.80
2018-04-26T15:50:06.849Z,14.10
2018-04-26T15:52:53.678Z,14.00
2018-04-26T15:55:39.425Z,13.90
2018-04-26T15:58:17.670Z,13.30
2018-04-26T16:01:01.813Z,13.20
2018-04-26T16:03:45.262Z,13.70
2018-04-26T16:07:11.831Z,14.00
2018-04-26T16:09:52.551Z,14.30
2018-04-26T16:14:40.723Z,14.00
2018-04-26T16:19:28.073Z,14.00
2018-04-26T16:32:47.902Z,13.80
2018-04-26T16:37:40.506Z,13.70
2018-04-26T16:40:11.283Z,13.40
2018-04-26T16:42:39.782Z,13.30
2018-04-26T16:45:08.259Z,13.30
2018-04-26T16:47:37.105Z,13.20
2018-04-26T16:50:09.404Z,13.20
2018-04-26T16:52:39.008Z,13.30
2018-04-26T16:57:41.071Z,13.00
2018-04-26T17:13:28.900Z,13.20
2018-04-26T17:15:58.225Z,13.30
2018-04-26T17:18:27.080Z,13.30
2018-04-26T17:25:55.704Z,13.00
2018-04-26T17:28:28.228Z,12.90
2018-04-26T17:30:56.731Z,12.80
2018-04-26T17:33:29.197Z,12.60
2018-04-26T17:35:58.494Z,12.50
2018-04-26T17:38:31.899Z,12.40
2018-04-26T17:41:02.489Z,12.50
2018-04-26T17:43:32.396Z,12.50
2018-04-26T17:46:02.231Z,12.60
2018-04-26T17:48:35.297Z,12.60
2018-04-26T17:51:04.190Z,12.50
2018-04-26T17:53:45.858Z,12.50
2018-04-26T17:56:14.326Z,12.50
2018-04-26T17:58:43.181Z,12.50
2018-04-26T18:01:11.728Z,13.40
2018-04-26T18:03:43.347Z,12.60
2018-04-26T18:08:44.774Z,12.40
2018-04-26T18:11:13.254Z,12.40
2018-04-26T18:13:56.276Z,12.40
2018-04-26T18:16:26.470Z,12.30
2018-04-26T18:32:16.776Z,12.20
2018-04-26T18:37:15.859Z,12.10
2018-04-26T18:39:44.321Z,11.90
2018-04-26T18:42:14.294Z,11.70
2018-04-26T18:44:44.173Z,11.10
2018-04-26T18:47:14.182Z,11.50
2018-04-26T18:52:12.450Z,11.30
2018-04-26T18:54:41.330Z,11.20
2018-04-26T18:57:11.312Z,11.10
2018-04-26T18:59:40.075Z,11.10
2018-04-26T19:02:22.232Z,11.10
2018-04-26T19:04:51.067Z,11.00
2018-04-26T19:07:21.055Z,11.10
2018-04-26T19:09:50.813Z,11.10
2018-04-26T19:12:19.601Z,11.10
2018-04-26T19:14:48.479Z,11.00
2018-04-26T19:17:18.195Z,10.90
2018-04-26T19:19:48.017Z,10.90
2018-04-26T19:22:29.702Z,10.90
2018-04-26T19:24:58.824Z,10.90
2018-04-26T19:27:28.435Z,10.70
2018-04-26T19:32:27.471Z,10.70
2018-04-26T19:37:28.162Z,10.60
2018-04-26T19:44:57.345Z,10.40
2018-04-26T19:47:31.367Z,10.20
2018-04-26T19:50:00.847Z,10.30
2018-04-26T19:52:35.492Z,10.20
2018-04-26T19:55:06.063Z,10.20
2018-04-26T19:57:38.394Z,9.90
2018-04-26T20:00:06.937Z,10.90
2018-04-26T20:02:39.525Z,9.90
2018-04-26T20:05:08.404Z,10.00
2018-04-26T20:07:41.862Z,10.00
2018-04-26T20:10:10.599Z,9.90
2018-04-26T20:12:52.999Z,9.80
2018-04-26T20:15:22.841Z,9.70
2018-04-26T20:17:51.699Z,9.70
2018-04-26T20:20:21.446Z,9.50
2018-04-26T20:22:50.723Z,9.40
2018-04-26T20:25:20.426Z,9.40
2018-04-26T20:27:50.968Z,9.30
2018-04-26T20:30:21.141Z,9.30
2018-04-26T20:32:54.744Z,9.30
2018-04-26T20:35:23.610Z,9.30
2018-04-26T20:37:56.612Z,9.20
2018-04-26T20:40:26.211Z,9.20
2018-04-26T20:42:58.135Z,8.20
2018-04-26T20:48:09.955Z,9.00
2018-04-26T20:50:40.323Z,8.90
2018-04-26T20:53:08.818Z,8.90
2018-04-26T20:55:38.416Z,8.80
2018-04-26T20:58:08.666Z,8.70
2018-04-26T21:00:38.272Z,8.70
2018-04-26T21:03:10.727Z,8.60
2018-04-26T21:05:40.463Z,8.50
2018-04-26T21:08:12.383Z,8.50
2018-04-26T21:10:40.868Z,8.50
2018-04-26T21:13:16.776Z,8.40
2018-04-26T21:15:45.345Z,9.50
2018-04-26T21:18:17.522Z,8.40
2018-04-26T21:20:47.062Z,8.40
2018-04-26T21:23:19.074Z,8.50
2018-04-26T21:25:48.315Z,8.50
2018-04-26T21:28:20.830Z,8.50
2018-04-26T21:30:50.143Z,8.50
2018-04-26T21:33:23.430Z,8.40
2018-04-26T21:35:53.951Z,8.40
2018-04-26T21:38:26.991Z,8.30
2018-04-26T21:40:56.624Z,8.40
2018-04-26T21:43:29.125Z,8.30
2018-04-26T21:45:58.741Z,8.20
2018-04-26T21:51:04.003Z,8.20
2018-04-26T21:53:38.852Z,8.20
2018-04-26T21:56:13.889Z,8.10
2018-04-26T21:58:48.911Z,8.20
2018-04-26T22:01:23.976Z,8.10
2018-04-26T22:03:55.149Z,8.10
2018-04-26T22:06:25.334Z,8.10
2018-04-26T22:08:54.138Z,8.10
2018-04-26T22:11:25.610Z,8.10
2018-04-26T22:13:54.441Z,8.00
2018-04-26T22:16:23.530Z,7.90
2018-04-26T22:21:23.631Z,7.80
2018-04-26T22:26:23.002Z,7.70
2018-04-26T22:28:51.565Z,8.00
2018-04-26T22:33:51.503Z,7.70
2018-04-26T22:36:20.039Z,7.70
2018-04-26T22:39:02.820Z,7.70
2018-04-26T22:41:31.691Z,7.70
2018-04-26T22:46:29.635Z,7.70
2018-04-26T22:48:58.752Z,7.60
2018-04-26T22:51:28.711Z,7.60
2018-04-26T22:54:01.915Z,7.50
2018-04-26T22:59:12.625Z,7.40
2018-04-26T23:01:41.091Z,7.50
2018-04-26T23:04:10.134Z,7.50
2018-04-26T23:06:38.577Z,7.50
2018-04-26T23:09:10.575Z,7.40
2018-04-26T23:11:40.466Z,7.60
2018-04-26T23:16:41.855Z,7.70
2018-04-26T23:19:14.297Z,7.70
2018-04-26T23:21:43.546Z,7.70
2018-04-26T23:24:16.691Z,7.60
2018-04-26T23:26:46.167Z,7.50
2018-04-26T23:29:19.425Z,7.40
2018-04-26T23:31:48.634Z,7.30
2018-04-26T23:34:25.849Z,7.30
2018-04-26T23:36:55.061Z,7.30
2018-04-26T23:39:23.515Z,7.40
2018-04-26T23:41:52.244Z,7.40
2018-04-26T23:44:33.918Z,7.30
2018-04-26T23:47:02.509Z,7.30
2018-04-26T23:49:32.029Z,7.30
2018-04-26T23:52:01.427Z,7.30
2018-04-26T23:54:30.651Z,7.70
2018-04-26T23:56:59.400Z,7.20
2018-04-26T23:59:32.179Z,7.20
